sensor_id;sensor_type;location;lat;lon;timestamp;P1;P2;P0
75946;PMS5003;64628;50.104;14.614;2023-09-07T00:02:02;36;35;
75946;PMS5003;64628;50.104;14.614;2023-09-07T00:04:28;34;34;
75946;PMS5003;64628;50.104;14.614;2023-09-07T00:06:47;36;35;
75946;PMS5003;64628;50.104;14.614;2023-09-07T00:09:13;35;34;
75946;PMS5003;64628;50.104;14.614;2023-09-07T00:11:40;69;62;
75946;PMS5003;64628;50.104;14.614;2023-09-07T00:14:04;30;28;
75946;PMS5003;64628;50.104;14.614;2023-09-07T00:16:30;70;69;
75946;PMS5003;64628;50.104;14.614;2023-09-07T00:18:55;31;30;
75946;PMS5003;64628;50.104;14.614;2023-09-07T00:21:21;59;57;
75946;PMS5003;64628;50.104;14.614;2023-09-07T00:23:47;33;33;
75946;PMS5003;64628;50.104;14.614;2023-09-07T00:26:12;34;32;
75946;PMS5003;64628;50.104;14.614;2023-09-07T00:28:37;62;60;
75946;PMS5003;64628;50.104;14.614;2023-09-07T00:31:03;33;31;
75946;PMS5003;64628;50.104;14.614;2023-09-07T00:33:28;28;24;
75946;PMS5003;64628;50.104;14.614;2023-09-07T00:35:54;33;28;
75946;PMS5003;64628;50.104;14.614;2023-09-07T00:38:20;39;38;
75946;PMS5003;64628;50.104;14.614;2023-09-07T00:40:45;32;28;
75946;PMS5003;64628;50.104;14.614;2023-09-07T00:43:11;29;29;
75946;PMS5003;64628;50.104;14.614;2023-09-07T00:45:36;30;29;
75946;PMS5003;64628;50.104;14.614;2023-09-07T00:48:02;35;34;
75946;PMS5003;64628;50.104;14.614;2023-09-07T00:50:27;33;30;
75946;PMS5003;64628;50.104;14.614;2023-09-07T00:52:52;59;58;
75946;PMS5003;64628;50.104;14.614;2023-09-07T00:55:18;29;29;
75946;PMS5003;64628;50.104;14.614;2023-09-07T00:57:43;33;32;
75946;PMS5003;64628;50.104;14.614;2023-09-07T01:00:09;96;93;
75946;PMS5003;64628;50.104;14.614;2023-09-07T01:02:34;55;53;
75946;PMS5003;64628;50.104;14.614;2023-09-07T01:04:59;48;46;
75946;PMS5003;64628;50.104;14.614;2023-09-07T01:07:26;53;52;
75946;PMS5003;64628;50.104;14.614;2023-09-07T01:09:51;39;34;
75946;PMS5003;64628;50.104;14.614;2023-09-07T01:12:15;39;38;
75946;PMS5003;64628;50.104;14.614;2023-09-07T01:14:41;43;41;
75946;PMS5003;64628;50.104;14.614;2023-09-07T01:17:06;40;38;
75946;PMS5003;64628;50.104;14.614;2023-09-07T01:19:32;44;40;
75946;PMS5003;64628;50.104;14.614;2023-09-07T01:21:58;53;52;
75946;PMS5003;64628;50.104;14.614;2023-09-07T01:24:24;54;51;
75946;PMS5003;64628;50.104;14.614;2023-09-07T01:26:49;53;50;
75946;PMS5003;64628;50.104;14.614;2023-09-07T01:29:15;52;52;
75946;PMS5003;64628;50.104;14.614;2023-09-07T01:31:40;64;64;
75946;PMS5003;64628;50.104;14.614;2023-09-07T01:34:05;68;66;
75946;PMS5003;64628;50.104;14.614;2023-09-07T01:36:31;69;67;
75946;PMS5003;64628;50.104;14.614;2023-09-07T01:38:57;90;88;
75946;PMS5003;64628;50.104;14.614;2023-09-07T01:41:22;105;104;
75946;PMS5003;64628;50.104;14.614;2023-09-07T01:43:47;109;106;
75946;PMS5003;64628;50.104;14.614;2023-09-07T01:46:12;163;154;
75946;PMS5003;64628;50.104;14.614;2023-09-07T01:48:38;141;141;
75946;PMS5003;64628;50.104;14.614;2023-09-07T01:51:03;200;199;
75946;PMS5003;64628;50.104;14.614;2023-09-07T01:53:28;178;177;
75946;PMS5003;64628;50.104;14.614;2023-09-07T01:55:54;191;189;
75946;PMS5003;64628;50.104;14.614;2023-09-07T01:58:19;170;170;
75946;PMS5003;64628;50.104;14.614;2023-09-07T02:00:44;162;159;
75946;PMS5003;64628;50.104;14.614;2023-09-07T02:03:10;145;145;
75946;PMS5003;64628;50.104;14.614;2023-09-07T02:05:35;131;127;
75946;PMS5003;64628;50.104;14.614;2023-09-07T02:08:00;131;131;
75946;PMS5003;64628;50.104;14.614;2023-09-07T02:10:26;129;126;
75946;PMS5003;64628;50.104;14.614;2023-09-07T02:12:51;142;141;
75946;PMS5003;64628;50.104;14.614;2023-09-07T02:15:16;160;160;
75946;PMS5003;64628;50.104;14.614;2023-09-07T02:17:42;117;117;
75946;PMS5003;64628;50.104;14.614;2023-09-07T02:20:08;110;107;
75946;PMS5003;64628;50.104;14.614;2023-09-07T02:22:33;119;118;
75946;PMS5003;64628;50.104;14.614;2023-09-07T02:24:59;84;83;
75946;PMS5003;64628;50.104;14.614;2023-09-07T02:27:24;103;97;
75946;PMS5003;64628;50.104;14.614;2023-09-07T02:29:50;86;85;
75946;PMS5003;64628;50.104;14.614;2023-09-07T02:32:15;22;22;
75946;PMS5003;64628;50.104;14.614;2023-09-07T02:34:41;27;26;
75946;PMS5003;64628;50.104;14.614;2023-09-07T02:37:06;33;30;
75946;PMS5003;64628;50.104;14.614;2023-09-07T02:39:31;31;28;
75946;PMS5003;64628;50.104;14.614;2023-09-07T02:41:57;28;28;
75946;PMS5003;64628;50.104;14.614;2023-09-07T02:44:22;21;20;
75946;PMS5003;64628;50.104;14.614;2023-09-07T02:46:49;26;26;
75946;PMS5003;64628;50.104;14.614;2023-09-07T02:49:14;24;24;
75946;PMS5003;64628;50.104;14.614;2023-09-07T02:51:40;31;24;
75946;PMS5003;64628;50.104;14.614;2023-09-07T02:54:04;25;25;
75946;PMS5003;64628;50.104;14.614;2023-09-07T02:56:31;27;23;
75946;PMS5003;64628;50.104;14.614;2023-09-07T02:58:55;25;24;
75946;PMS5003;64628;50.104;14.614;2023-09-07T03:01:22;29;26;
75946;PMS5003;64628;50.104;14.614;2023-09-07T03:03:47;25;23;
75946;PMS5003;64628;50.104;14.614;2023-09-07T03:06:12;25;23;
75946;PMS5003;64628;50.104;14.614;2023-09-07T03:08:37;29;24;
75946;PMS5003;64628;50.104;14.614;2023-09-07T03:11:03;25;22;
75946;PMS5003;64628;50.104;14.614;2023-09-07T03:13:28;28;28;
75946;PMS5003;64628;50.104;14.614;2023-09-07T03:15:53;25;22;
75946;PMS5003;64628;50.104;14.614;2023-09-07T03:18:20;25;24;
75946;PMS5003;64628;50.104;14.614;2023-09-07T03:20:45;28;25;
75946;PMS5003;64628;50.104;14.614;2023-09-07T03:23:10;24;23;
75946;PMS5003;64628;50.104;14.614;2023-09-07T03:25:36;33;26;
75946;PMS5003;64628;50.104;14.614;2023-09-07T03:28:06;28;24;
75946;PMS5003;64628;50.104;14.614;2023-09-07T03:30:27;24;22;
75946;PMS5003;64628;50.104;14.614;2023-09-07T03:32:53;31;24;
75946;PMS5003;64628;50.104;14.614;2023-09-07T03:35:21;26;24;
75946;PMS5003;64628;50.104;14.614;2023-09-07T03:37:45;28;25;
75946;PMS5003;64628;50.104;14.614;2023-09-07T03:40:09;28;26;
75946;PMS5003;64628;50.104;14.614;2023-09-07T03:42:37;30;25;
75946;PMS5003;64628;50.104;14.614;2023-09-07T03:45:00;27;23;
75946;PMS5003;64628;50.104;14.614;2023-09-07T03:47:27;35;28;
75946;PMS5003;64628;50.104;14.614;2023-09-07T03:49:53;32;31;
75946;PMS5003;64628;50.104;14.614;2023-09-07T03:52:17;29;25;
75946;PMS5003;64628;50.104;14.614;2023-09-07T03:54:48;24;24;
75946;PMS5003;64628;50.104;14.614;2023-09-07T03:57:09;34;30;
75946;PMS5003;64628;50.104;14.614;2023-09-07T03:59:34;27;24;
75946;PMS5003;64628;50.104;14.614;2023-09-07T04:02:00;24;24;
75946;PMS5003;64628;50.104;14.614;2023-09-07T04:04:30;25;24;
75946;PMS5003;64628;50.104;14.614;2023-09-07T04:06:50;35;33;
75946;PMS5003;64628;50.104;14.614;2023-09-07T04:09:17;30;29;
75946;PMS5003;64628;50.104;14.614;2023-09-07T04:11:42;34;30;
75946;PMS5003;64628;50.104;14.614;2023-09-07T04:14:08;34;30;
75946;PMS5003;64628;50.104;14.614;2023-09-07T04:16:33;33;27;
75946;PMS5003;64628;50.104;14.614;2023-09-07T04:18:59;31;27;
75946;PMS5003;64628;50.104;14.614;2023-09-07T04:21:23;30;24;
75946;PMS5003;64628;50.104;14.614;2023-09-07T04:23:49;27;24;
75946;PMS5003;64628;50.104;14.614;2023-09-07T04:26:14;23;22;
75946;PMS5003;64628;50.104;14.614;2023-09-07T04:28:39;28;27;
75946;PMS5003;64628;50.104;14.614;2023-09-07T04:31:05;30;29;
75946;PMS5003;64628;50.104;14.614;2023-09-07T04:33:31;30;26;
75946;PMS5003;64628;50.104;14.614;2023-09-07T04:35:56;25;25;
75946;PMS5003;64628;50.104;14.614;2023-09-07T04:38:22;31;30;
75946;PMS5003;64628;50.104;14.614;2023-09-07T04:40:47;32;29;
75946;PMS5003;64628;50.104;14.614;2023-09-07T04:43:13;31;29;
75946;PMS5003;64628;50.104;14.614;2023-09-07T04:48:04;33;31;
75946;PMS5003;64628;50.104;14.614;2023-09-07T04:50:29;35;30;
75946;PMS5003;64628;50.104;14.614;2023-09-07T04:52:55;29;27;
75946;PMS5003;64628;50.104;14.614;2023-09-07T04:55:20;29;29;
75946;PMS5003;64628;50.104;14.614;2023-09-07T04:57:46;33;31;
75946;PMS5003;64628;50.104;14.614;2023-09-07T05:00:12;39;32;
75946;PMS5003;64628;50.104;14.614;2023-09-07T05:02:37;33;31;
75946;PMS5003;64628;50.104;14.614;2023-09-07T05:05:03;42;38;
75946;PMS5003;64628;50.104;14.614;2023-09-07T05:07:28;34;32;
75946;PMS5003;64628;50.104;14.614;2023-09-07T05:09:53;34;31;
75946;PMS5003;64628;50.104;14.614;2023-09-07T05:12:19;31;29;
75946;PMS5003;64628;50.104;14.614;2023-09-07T05:14:44;40;33;
75946;PMS5003;64628;50.104;14.614;2023-09-07T05:17:09;33;29;
75946;PMS5003;64628;50.104;14.614;2023-09-07T05:19:34;31;27;
75946;PMS5003;64628;50.104;14.614;2023-09-07T05:21:59;30;29;
75946;PMS5003;64628;50.104;14.614;2023-09-07T05:24:25;28;25;
75946;PMS5003;64628;50.104;14.614;2023-09-07T05:26:51;30;30;
75946;PMS5003;64628;50.104;14.614;2023-09-07T05:29:16;33;30;
75946;PMS5003;64628;50.104;14.614;2023-09-07T05:31:42;27;25;
75946;PMS5003;64628;50.104;14.614;2023-09-07T05:34:07;29;28;
75946;PMS5003;64628;50.104;14.614;2023-09-07T05:36:33;29;27;
75946;PMS5003;64628;50.104;14.614;2023-09-07T05:38:59;27;27;
75946;PMS5003;64628;50.104;14.614;2023-09-07T05:41:24;27;27;
75946;PMS5003;64628;50.104;14.614;2023-09-07T05:43:50;25;24;
75946;PMS5003;64628;50.104;14.614;2023-09-07T05:46:16;40;36;
75946;PMS5003;64628;50.104;14.614;2023-09-07T05:48:41;34;27;
75946;PMS5003;64628;50.104;14.614;2023-09-07T05:51:07;34;29;
75946;PMS5003;64628;50.104;14.614;2023-09-07T05:53:32;34;33;
75946;PMS5003;64628;50.104;14.614;2023-09-07T05:55:58;36;36;
75946;PMS5003;64628;50.104;14.614;2023-09-07T05:58:23;30;28;
75946;PMS5003;64628;50.104;14.614;2023-09-07T06:00:49;35;33;
75946;PMS5003;64628;50.104;14.614;2023-09-07T06:03:14;30;25;
75946;PMS5003;64628;50.104;14.614;2023-09-07T06:05:40;28;28;
75946;PMS5003;64628;50.104;14.614;2023-09-07T06:08:06;38;36;
75946;PMS5003;64628;50.104;14.614;2023-09-07T06:10:31;36;35;
75946;PMS5003;64628;50.104;14.614;2023-09-07T06:12:57;37;37;
75946;PMS5003;64628;50.104;14.614;2023-09-07T06:15:21;46;44;
75946;PMS5003;64628;50.104;14.614;2023-09-07T06:17:47;33;30;
75946;PMS5003;64628;50.104;14.614;2023-09-07T06:20:13;29;28;
75946;PMS5003;64628;50.104;14.614;2023-09-07T06:22:38;25;25;
75946;PMS5003;64628;50.104;14.614;2023-09-07T06:25:04;25;25;
75946;PMS5003;64628;50.104;14.614;2023-09-07T06:27:29;28;26;
75946;PMS5003;64628;50.104;14.614;2023-09-07T06:29:54;31;27;
75946;PMS5003;64628;50.104;14.614;2023-09-07T06:32:20;23;22;
75946;PMS5003;64628;50.104;14.614;2023-09-07T06:34:46;22;20;
75946;PMS5003;64628;50.104;14.614;2023-09-07T06:37:11;22;20;
75946;PMS5003;64628;50.104;14.614;2023-09-07T06:39:37;23;18;
75946;PMS5003;64628;50.104;14.614;2023-09-07T06:42:02;22;19;
75946;PMS5003;64628;50.104;14.614;2023-09-07T06:44:27;20;16;
75946;PMS5003;64628;50.104;14.614;2023-09-07T06:46:52;23;21;
75946;PMS5003;64628;50.104;14.614;2023-09-07T06:49:18;25;25;
75946;PMS5003;64628;50.104;14.614;2023-09-07T06:51:43;21;20;
75946;PMS5003;64628;50.104;14.614;2023-09-07T06:54:09;24;22;
75946;PMS5003;64628;50.104;14.614;2023-09-07T06:56:35;18;15;
75946;PMS5003;64628;50.104;14.614;2023-09-07T06:59:00;16;13;
75946;PMS5003;64628;50.104;14.614;2023-09-07T07:01:25;32;30;
75946;PMS5003;64628;50.104;14.614;2023-09-07T07:03:50;20;20;
75946;PMS5003;64628;50.104;14.614;2023-09-07T07:06:15;19;18;
75946;PMS5003;64628;50.104;14.614;2023-09-07T07:08:40;21;17;
75946;PMS5003;64628;50.104;14.614;2023-09-07T07:11:06;17;16;
75946;PMS5003;64628;50.104;14.614;2023-09-07T07:13:32;18;17;
75946;PMS5003;64628;50.104;14.614;2023-09-07T07:15:57;17;15;
75946;PMS5003;64628;50.104;14.614;2023-09-07T07:18:23;14;14;
75946;PMS5003;64628;50.104;14.614;2023-09-07T07:20:48;14;14;
75946;PMS5003;64628;50.104;14.614;2023-09-07T07:23:13;12;12;
75946;PMS5003;64628;50.104;14.614;2023-09-07T07:25:38;15;14;
75946;PMS5003;64628;50.104;14.614;2023-09-07T07:28:04;15;15;
75946;PMS5003;64628;50.104;14.614;2023-09-07T07:30:29;16;15;
75946;PMS5003;64628;50.104;14.614;2023-09-07T07:32:54;13;12;
75946;PMS5003;64628;50.104;14.614;2023-09-07T07:35:19;20;19;
75946;PMS5003;64628;50.104;14.614;2023-09-07T07:37:45;17;16;
75946;PMS5003;64628;50.104;14.614;2023-09-07T07:40:10;18;17;
75946;PMS5003;64628;50.104;14.614;2023-09-07T07:42:36;14;14;
75946;PMS5003;64628;50.104;14.614;2023-09-07T07:45:01;14;14;
75946;PMS5003;64628;50.104;14.614;2023-09-07T07:47:26;16;16;
75946;PMS5003;64628;50.104;14.614;2023-09-07T07:49:52;10;10;
75946;PMS5003;64628;50.104;14.614;2023-09-07T07:52:17;16;13;
75946;PMS5003;64628;50.104;14.614;2023-09-07T07:54:43;16;14;
75946;PMS5003;64628;50.104;14.614;2023-09-07T07:57:08;12;11;
75946;PMS5003;64628;50.104;14.614;2023-09-07T07:59:34;20;15;
75946;PMS5003;64628;50.104;14.614;2023-09-07T08:01:59;16;15;
75946;PMS5003;64628;50.104;14.614;2023-09-07T08:04:25;16;15;
75946;PMS5003;64628;50.104;14.614;2023-09-07T08:06:51;15;15;
75946;PMS5003;64628;50.104;14.614;2023-09-07T08:09:16;15;14;
75946;PMS5003;64628;50.104;14.614;2023-09-07T08:11:41;16;16;
75946;PMS5003;64628;50.104;14.614;2023-09-07T08:14:07;15;14;
75946;PMS5003;64628;50.104;14.614;2023-09-07T08:16:32;16;15;
75946;PMS5003;64628;50.104;14.614;2023-09-07T08:18:58;17;15;
75946;PMS5003;64628;50.104;14.614;2023-09-07T08:21:24;34;32;
75946;PMS5003;64628;50.104;14.614;2023-09-07T08:23:49;39;39;
75946;PMS5003;64628;50.104;14.614;2023-09-07T08:26:14;100;100;
75946;PMS5003;64628;50.104;14.614;2023-09-07T08:28:39;17;15;
75946;PMS5003;64628;50.104;14.614;2023-09-07T08:31:05;17;15;
75946;PMS5003;64628;50.104;14.614;2023-09-07T08:33:32;18;17;
75946;PMS5003;64628;50.104;14.614;2023-09-07T08:35:56;20;19;
75946;PMS5003;64628;50.104;14.614;2023-09-07T08:38:22;28;26;
75946;PMS5003;64628;50.104;14.614;2023-09-07T08:40:47;34;30;
75946;PMS5003;64628;50.104;14.614;2023-09-07T08:43:12;32;30;
75946;PMS5003;64628;50.104;14.614;2023-09-07T08:45:41;17;17;
75946;PMS5003;64628;50.104;14.614;2023-09-07T08:48:04;23;22;
75946;PMS5003;64628;50.104;14.614;2023-09-07T08:50:29;16;15;
75946;PMS5003;64628;50.104;14.614;2023-09-07T08:52:55;19;18;
75946;PMS5003;64628;50.104;14.614;2023-09-07T08:55:21;18;17;
75946;PMS5003;64628;50.104;14.614;2023-09-07T08:57:46;17;17;
75946;PMS5003;64628;50.104;14.614;2023-09-07T09:00:12;19;17;
75946;PMS5003;64628;50.104;14.614;2023-09-07T09:02:37;19;16;
75946;PMS5003;64628;50.104;14.614;2023-09-07T09:05:04;25;24;
75946;PMS5003;64628;50.104;14.614;2023-09-07T09:07:28;19;17;
75946;PMS5003;64628;50.104;14.614;2023-09-07T09:12:19;20;18;
75946;PMS5003;64628;50.104;14.614;2023-09-07T09:14:44;20;18;
75946;PMS5003;64628;50.104;14.614;2023-09-07T09:17:11;18;17;
75946;PMS5003;64628;50.104;14.614;2023-09-07T09:19:35;21;20;
75946;PMS5003;64628;50.104;14.614;2023-09-07T09:22:01;20;18;
75946;PMS5003;64628;50.104;14.614;2023-09-07T09:24:25;21;21;
75946;PMS5003;64628;50.104;14.614;2023-09-07T09:26:51;20;17;
75946;PMS5003;64628;50.104;14.614;2023-09-07T09:29:16;20;17;
75946;PMS5003;64628;50.104;14.614;2023-09-07T09:31:43;17;15;
75946;PMS5003;64628;50.104;14.614;2023-09-07T09:34:08;17;17;
75946;PMS5003;64628;50.104;14.614;2023-09-07T09:36:35;14;14;
75946;PMS5003;64628;50.104;14.614;2023-09-07T09:38:58;21;19;
75946;PMS5003;64628;50.104;14.614;2023-09-07T09:41:24;15;15;
75946;PMS5003;64628;50.104;14.614;2023-09-07T09:43:49;16;15;
75946;PMS5003;64628;50.104;14.614;2023-09-07T09:46:15;18;18;
75946;PMS5003;64628;50.104;14.614;2023-09-07T09:48:40;18;17;
75946;PMS5003;64628;50.104;14.614;2023-09-07T09:51:06;17;17;
75946;PMS5003;64628;50.104;14.614;2023-09-07T09:53:31;20;17;
75946;PMS5003;64628;50.104;14.614;2023-09-07T09:55:58;22;19;
75946;PMS5003;64628;50.104;14.614;2023-09-07T09:58:22;17;17;
75946;PMS5003;64628;50.104;14.614;2023-09-07T10:00:48;22;20;
75946;PMS5003;64628;50.104;14.614;2023-09-07T10:03:15;19;17;
75946;PMS5003;64628;50.104;14.614;2023-09-07T10:05:39;17;17;
75946;PMS5003;64628;50.104;14.614;2023-09-07T10:08:08;22;19;
75946;PMS5003;64628;50.104;14.614;2023-09-07T10:10:33;16;16;
75946;PMS5003;64628;50.104;14.614;2023-09-07T10:12:56;18;17;
75946;PMS5003;64628;50.104;14.614;2023-09-07T10:15:21;19;19;
75946;PMS5003;64628;50.104;14.614;2023-09-07T10:17:47;14;14;
75946;PMS5003;64628;50.104;14.614;2023-09-07T10:20:12;20;18;
75946;PMS5003;64628;50.104;14.614;2023-09-07T10:22:37;21;19;
75946;PMS5003;64628;50.104;14.614;2023-09-07T10:25:03;16;13;
75946;PMS5003;64628;50.104;14.614;2023-09-07T10:29:54;18;18;
75946;PMS5003;64628;50.104;14.614;2023-09-07T10:32:21;15;15;
75946;PMS5003;64628;50.104;14.614;2023-09-07T10:34:44;19;17;
75946;PMS5003;64628;50.104;14.614;2023-09-07T10:37:10;19;18;
75946;PMS5003;64628;50.104;14.614;2023-09-07T10:39:36;16;16;
75946;PMS5003;64628;50.104;14.614;2023-09-07T10:42:01;15;14;
75946;PMS5003;64628;50.104;14.614;2023-09-07T10:44:27;18;15;
75946;PMS5003;64628;50.104;14.614;2023-09-07T10:46:51;17;16;
75946;PMS5003;64628;50.104;14.614;2023-09-07T10:49:18;19;17;
75946;PMS5003;64628;50.104;14.614;2023-09-07T10:51:44;17;17;
75946;PMS5003;64628;50.104;14.614;2023-09-07T10:56:33;22;22;
75946;PMS5003;64628;50.104;14.614;2023-09-07T10:58:58;17;16;
75946;PMS5003;64628;50.104;14.614;2023-09-07T11:01:24;16;14;
75946;PMS5003;64628;50.104;14.614;2023-09-07T11:03:49;21;17;
75946;PMS5003;64628;50.104;14.614;2023-09-07T11:06:16;14;14;
75946;PMS5003;64628;50.104;14.614;2023-09-07T11:08:41;18;18;
75946;PMS5003;64628;50.104;14.614;2023-09-07T11:11:07;17;16;
75946;PMS5003;64628;50.104;14.614;2023-09-07T11:13:32;18;18;
75946;PMS5003;64628;50.104;14.614;2023-09-07T11:15:58;16;16;
75946;PMS5003;64628;50.104;14.614;2023-09-07T11:18:23;14;14;
75946;PMS5003;64628;50.104;14.614;2023-09-07T11:20:49;18;16;
75946;PMS5003;64628;50.104;14.614;2023-09-07T11:23:14;12;12;
75946;PMS5003;64628;50.104;14.614;2023-09-07T11:25:39;14;13;
75946;PMS5003;64628;50.104;14.614;2023-09-07T11:28:05;13;13;
75946;PMS5003;64628;50.104;14.614;2023-09-07T11:30:35;14;13;
75946;PMS5003;64628;50.104;14.614;2023-09-07T11:35:21;12;11;
75946;PMS5003;64628;50.104;14.614;2023-09-07T11:40:16;14;13;
75946;PMS5003;64628;50.104;14.614;2023-09-07T11:42:37;14;13;
75946;PMS5003;64628;50.104;14.614;2023-09-07T11:45:03;15;14;
75946;PMS5003;64628;50.104;14.614;2023-09-07T11:47:28;13;13;
75946;PMS5003;64628;50.104;14.614;2023-09-07T11:49:53;12;12;
75946;PMS5003;64628;50.104;14.614;2023-09-07T11:52:19;14;14;
75946;PMS5003;64628;50.104;14.614;2023-09-07T11:54:45;11;11;
75946;PMS5003;64628;50.104;14.614;2023-09-07T11:57:11;13;12;
75946;PMS5003;64628;50.104;14.614;2023-09-07T11:59:36;14;13;
75946;PMS5003;64628;50.104;14.614;2023-09-07T12:02:07;13;10;
75946;PMS5003;64628;50.104;14.614;2023-09-07T12:04:27;13;13;
75946;PMS5003;64628;50.104;14.614;2023-09-07T12:06:52;14;14;
75946;PMS5003;64628;50.104;14.614;2023-09-07T12:09:18;11;11;
75946;PMS5003;64628;50.104;14.614;2023-09-07T12:11:43;11;11;
75946;PMS5003;64628;50.104;14.614;2023-09-07T12:14:09;15;13;
75946;PMS5003;64628;50.104;14.614;2023-09-07T12:16:36;10;10;
75946;PMS5003;64628;50.104;14.614;2023-09-07T12:19:02;13;12;
75946;PMS5003;64628;50.104;14.614;2023-09-07T12:21:25;11;11;
75946;PMS5003;64628;50.104;14.614;2023-09-07T12:23:51;13;13;
75946;PMS5003;64628;50.104;14.614;2023-09-07T12:26:17;12;12;
75946;PMS5003;64628;50.104;14.614;2023-09-07T12:28:42;13;13;
75946;PMS5003;64628;50.104;14.614;2023-09-07T12:31:07;17;14;
75946;PMS5003;64628;50.104;14.614;2023-09-07T12:33:33;11;11;
75946;PMS5003;64628;50.104;14.614;2023-09-07T12:35:58;11;9;
75946;PMS5003;64628;50.104;14.614;2023-09-07T12:38:25;12;12;
75946;PMS5003;64628;50.104;14.614;2023-09-07T12:40:50;13;11;
75946;PMS5003;64628;50.104;14.614;2023-09-07T12:43:15;12;11;
75946;PMS5003;64628;50.104;14.614;2023-09-07T12:45:41;13;11;
75946;PMS5003;64628;50.104;14.614;2023-09-07T12:48:06;14;12;
75946;PMS5003;64628;50.104;14.614;2023-09-07T12:50:32;12;11;
75946;PMS5003;64628;50.104;14.614;2023-09-07T12:52:58;12;12;
75946;PMS5003;64628;50.104;14.614;2023-09-07T12:55:24;16;14;
75946;PMS5003;64628;50.104;14.614;2023-09-07T12:57:49;15;12;
75946;PMS5003;64628;50.104;14.614;2023-09-07T13:00:16;12;11;
75946;PMS5003;64628;50.104;14.614;2023-09-07T13:02:40;16;14;
75946;PMS5003;64628;50.104;14.614;2023-09-07T13:05:07;13;13;
75946;PMS5003;64628;50.104;14.614;2023-09-07T13:07:31;11;11;
75946;PMS5003;64628;50.104;14.614;2023-09-07T13:09:57;15;13;
75946;PMS5003;64628;50.104;14.614;2023-09-07T13:12:22;13;10;
75946;PMS5003;64628;50.104;14.614;2023-09-07T13:14:49;14;14;
75946;PMS5003;64628;50.104;14.614;2023-09-07T13:17:13;12;12;
75946;PMS5003;64628;50.104;14.614;2023-09-07T13:19:39;11;11;
75946;PMS5003;64628;50.104;14.614;2023-09-07T13:22:04;12;10;
75946;PMS5003;64628;50.104;14.614;2023-09-07T13:24:30;11;11;
75946;PMS5003;64628;50.104;14.614;2023-09-07T13:26:56;13;13;
75946;PMS5003;64628;50.104;14.614;2023-09-07T13:29:22;15;13;
75946;PMS5003;64628;50.104;14.614;2023-09-07T13:31:47;20;13;
75946;PMS5003;64628;50.104;14.614;2023-09-07T13:34:12;14;14;
75946;PMS5003;64628;50.104;14.614;2023-09-07T13:36:39;14;14;
75946;PMS5003;64628;50.104;14.614;2023-09-07T13:39:03;13;11;
75946;PMS5003;64628;50.104;14.614;2023-09-07T13:41:29;11;11;
75946;PMS5003;64628;50.104;14.614;2023-09-07T13:43:55;13;13;
75946;PMS5003;64628;50.104;14.614;2023-09-07T13:46:19;16;15;
75946;PMS5003;64628;50.104;14.614;2023-09-07T13:48:47;16;14;
75946;PMS5003;64628;50.104;14.614;2023-09-07T13:51:15;14;11;
75946;PMS5003;64628;50.104;14.614;2023-09-07T13:53:36;12;12;
75946;PMS5003;64628;50.104;14.614;2023-09-07T13:56:01;25;25;
75946;PMS5003;64628;50.104;14.614;2023-09-07T13:58:26;19;19;
75946;PMS5003;64628;50.104;14.614;2023-09-07T14:00:52;34;34;
75946;PMS5003;64628;50.104;14.614;2023-09-07T14:03:18;31;30;
75946;PMS5003;64628;50.104;14.614;2023-09-07T14:05:42;57;55;
75946;PMS5003;64628;50.104;14.614;2023-09-07T14:08:08;35;30;
75946;PMS5003;64628;50.104;14.614;2023-09-07T14:10:34;11;11;
75946;PMS5003;64628;50.104;14.614;2023-09-07T14:12:59;36;33;
75946;PMS5003;64628;50.104;14.614;2023-09-07T14:15:24;38;37;
75946;PMS5003;64628;50.104;14.614;2023-09-07T14:17:50;51;51;
75946;PMS5003;64628;50.104;14.614;2023-09-07T14:20:15;18;13;
75946;PMS5003;64628;50.104;14.614;2023-09-07T14:22:42;15;13;
75946;PMS5003;64628;50.104;14.614;2023-09-07T14:25:07;46;44;
75946;PMS5003;64628;50.104;14.614;2023-09-07T14:27:32;10;10;
75946;PMS5003;64628;50.104;14.614;2023-09-07T14:29:58;13;13;
75946;PMS5003;64628;50.104;14.614;2023-09-07T14:32:23;12;12;
75946;PMS5003;64628;50.104;14.614;2023-09-07T14:34:49;11;11;
75946;PMS5003;64628;50.104;14.614;2023-09-07T14:37:14;15;12;
75946;PMS5003;64628;50.104;14.614;2023-09-07T14:39:45;11;11;
75946;PMS5003;64628;50.104;14.614;2023-09-07T14:42:05;11;10;
75946;PMS5003;64628;50.104;14.614;2023-09-07T14:44:31;13;13;
75946;PMS5003;64628;50.104;14.614;2023-09-07T14:46:58;13;12;
75946;PMS5003;64628;50.104;14.614;2023-09-07T14:49:21;14;11;
75946;PMS5003;64628;50.104;14.614;2023-09-07T14:51:47;15;12;
75946;PMS5003;64628;50.104;14.614;2023-09-07T14:54:14;13;12;
75946;PMS5003;64628;50.104;14.614;2023-09-07T14:56:38;13;11;
75946;PMS5003;64628;50.104;14.614;2023-09-07T14:59:04;14;13;
75946;PMS5003;64628;50.104;14.614;2023-09-07T15:01:29;15;15;
75946;PMS5003;64628;50.104;14.614;2023-09-07T15:03:55;14;13;
75946;PMS5003;64628;50.104;14.614;2023-09-07T15:06:20;15;14;
75946;PMS5003;64628;50.104;14.614;2023-09-07T15:08:46;14;12;
75946;PMS5003;64628;50.104;14.614;2023-09-07T15:11:12;11;11;
75946;PMS5003;64628;50.104;14.614;2023-09-07T15:13:38;14;13;
75946;PMS5003;64628;50.104;14.614;2023-09-07T15:16:03;15;15;
75946;PMS5003;64628;50.104;14.614;2023-09-07T15:18:28;14;13;
75946;PMS5003;64628;50.104;14.614;2023-09-07T15:20:54;12;12;
75946;PMS5003;64628;50.104;14.614;2023-09-07T15:23:19;11;11;
75946;PMS5003;64628;50.104;14.614;2023-09-07T15:25:44;15;14;
75946;PMS5003;64628;50.104;14.614;2023-09-07T15:28:10;13;13;
75946;PMS5003;64628;50.104;14.614;2023-09-07T15:30:35;15;15;
75946;PMS5003;64628;50.104;14.614;2023-09-07T15:33:01;13;13;
75946;PMS5003;64628;50.104;14.614;2023-09-07T15:35:29;11;11;
75946;PMS5003;64628;50.104;14.614;2023-09-07T15:37:52;12;12;
75946;PMS5003;64628;50.104;14.614;2023-09-07T15:40:18;14;12;
75946;PMS5003;64628;50.104;14.614;2023-09-07T15:42:43;15;15;
75946;PMS5003;64628;50.104;14.614;2023-09-07T15:45:09;12;12;
75946;PMS5003;64628;50.104;14.614;2023-09-07T15:47:34;11;11;
75946;PMS5003;64628;50.104;14.614;2023-09-07T15:50:00;12;12;
75946;PMS5003;64628;50.104;14.614;2023-09-07T15:52:25;17;13;
75946;PMS5003;64628;50.104;14.614;2023-09-07T15:54:51;14;12;
75946;PMS5003;64628;50.104;14.614;2023-09-07T15:57:16;17;13;
75946;PMS5003;64628;50.104;14.614;2023-09-07T15:59:42;14;12;
75946;PMS5003;64628;50.104;14.614;2023-09-07T16:02:08;13;13;